createdAt,value
2023-03-29T00:00:30.314Z,1.60
2023-03-29T00:05:35.383Z,1.27
2023-03-29T00:10:38.822Z,1.50
2023-03-29T00:15:43.130Z,1.23
2023-03-29T00:20:47.797Z,1.53
2023-03-29T00:25:50.958Z,1.03
2023-03-29T00:30:54.112Z,1.50
2023-03-29T00:35:58.669Z,1.30
2023-03-29T00:41:02.643Z,1.30
2023-03-29T00:46:06.313Z,1.13
2023-03-29T00:51:14.275Z,1.43
2023-03-29T00:56:22.709Z,1.30
2023-03-29T01:01:33.903Z,1.20
2023-03-29T01:06:43.392Z,1.50
2023-03-29T01:11:50.524Z,1.53
2023-03-29T01:16:54.306Z,1.30
2023-03-29T01:22:09.509Z,1.53
2023-03-29T01:27:22.949Z,1.60
2023-03-29T01:32:35.782Z,1.00
2023-03-29T01:37:44.662Z,1.37
2023-03-29T01:42:55.568Z,1.10
2023-03-29T01:48:07.080Z,1.30
2023-03-29T01:53:17.782Z,1.03
2023-03-29T01:58:24.211Z,1.00
2023-03-29T02:03:31.714Z,0.90
2023-03-29T02:08:35.065Z,1.10
2023-03-29T02:13:38.806Z,1.43
2023-03-29T02:18:46.645Z,0.90
2023-03-29T02:23:51.610Z,1.20
2023-03-29T02:28:55.035Z,0.73
2023-03-29T02:34:06.262Z,1.20
2023-03-29T02:39:13.918Z,0.80
2023-03-29T02:44:20.578Z,1.20
2023-03-29T02:49:26.549Z,1.30
2023-03-29T02:54:31.520Z,0.93
2023-03-29T02:59:35.482Z,1.10
2023-03-29T03:04:39.970Z,0.90
2023-03-29T03:09:43.378Z,1.00
2023-03-29T03:14:46.734Z,0.90
2023-03-29T03:19:53.278Z,1.10
2023-03-29T03:24:57.121Z,0.90
2023-03-29T03:30:00.223Z,0.93
2023-03-29T03:35:25.148Z,0.80
2023-03-29T03:40:28.523Z,1.10
2023-03-29T03:45:32.335Z,0.77
2023-03-29T03:50:50.785Z,0.70
2023-03-29T03:55:56.204Z,1.00
2023-03-29T04:01:03.519Z,0.60
2023-03-29T04:06:17.866Z,0.67
2023-03-29T04:11:41.022Z,0.63
2023-03-29T04:16:45.179Z,0.83
2023-03-29T04:22:21.691Z,0.60
2023-03-29T04:27:25.603Z,0.60
2023-03-29T04:32:29.662Z,0.53
2023-03-29T04:37:40.530Z,0.47
2023-03-29T04:42:47.140Z,1.00
2023-03-29T04:47:50.883Z,1.00
2023-03-29T04:52:57.129Z,1.23
2023-03-29T04:58:01.159Z,2.37
2023-03-29T05:03:09.942Z,2.33
2023-03-29T05:08:18.638Z,2.37
2023-03-29T05:13:44.281Z,1.90
2023-03-29T05:18:47.865Z,1.57
2023-03-29T05:23:53.275Z,0.80
2023-03-29T05:29:23.426Z,0.90
2023-03-29T05:34:35.230Z,0.70
2023-03-29T05:39:40.944Z,0.70
2023-03-29T05:44:44.603Z,0.80
2023-03-29T05:49:54.790Z,0.73
2023-03-29T05:55:00.767Z,0.90
2023-03-29T06:00:15.130Z,1.47
2023-03-29T06:05:19.088Z,1.50
2023-03-29T06:10:36.619Z,1.27
2023-03-29T06:16:00.222Z,1.53
2023-03-29T06:21:05.005Z,1.30
2023-03-29T06:26:10.657Z,1.60
2023-03-29T06:31:14.927Z,1.30
2023-03-29T06:36:20.396Z,0.97
2023-03-29T06:41:26.348Z,1.20
2023-03-29T06:46:55.554Z,1.47
2023-03-29T06:52:00.125Z,1.80
2023-03-29T06:57:05.311Z,1.20
2023-03-29T07:02:12.437Z,1.27
2023-03-29T07:07:27.413Z,1.20
2023-03-29T07:12:47.916Z,0.80
2023-03-29T07:17:52.872Z,1.10
2023-03-29T07:22:56.571Z,1.00
2023-03-29T07:28:01.517Z,0.90
2023-03-29T07:33:05.698Z,1.10
2023-03-29T07:38:15.589Z,1.07
2023-03-29T07:43:26.191Z,1.30
2023-03-29T07:48:29.760Z,1.30
2023-03-29T07:53:37.187Z,1.10
2023-03-29T07:58:48.597Z,1.20
2023-03-29T08:03:54.057Z,0.70
2023-03-29T08:09:04.898Z,1.30
2023-03-29T08:14:09.960Z,1.20
2023-03-29T08:19:30.562Z,1.00
2023-03-29T08:24:42.357Z,1.10
2023-03-29T08:29:47.939Z,1.10
2023-03-29T08:34:51.554Z,0.90
2023-03-29T08:39:59.858Z,1.03
2023-03-29T08:45:17.783Z,1.20
2023-03-29T08:50:32.419Z,1.37
2023-03-29T08:55:39.717Z,1.20
2023-03-29T09:01:11.486Z,0.80
2023-03-29T09:06:27.954Z,1.17
2023-03-29T09:11:53.522Z,1.10
2023-03-29T09:17:05.923Z,1.20
2023-03-29T09:22:18.930Z,1.00
2023-03-29T09:27:27.999Z,0.90
2023-03-29T09:32:51.659Z,1.00
2023-03-29T09:37:57.814Z,0.90
2023-03-29T09:43:05.268Z,1.57
2023-03-29T09:48:13.702Z,1.10
2023-03-29T09:53:21.844Z,0.97
2023-03-29T09:58:37.855Z,1.37
2023-03-29T10:03:43.839Z,0.97
2023-03-29T10:08:52.757Z,0.87
2023-03-29T10:14:01.922Z,1.10
2023-03-29T10:19:19.902Z,1.10
2023-03-29T10:24:24.765Z,1.00
2023-03-29T10:29:28.932Z,1.23
2023-03-29T10:34:35.137Z,2.43
2023-03-29T10:39:38.360Z,1.70
2023-03-29T10:44:42.084Z,1.00
2023-03-29T10:49:52.630Z,1.53
2023-03-29T10:55:00.023Z,1.57
2023-03-29T11:00:10.889Z,1.70
2023-03-29T11:05:25.909Z,1.60
2023-03-29T11:10:39.413Z,1.70
2023-03-29T11:15:50.613Z,1.50
2023-03-29T11:21:02.952Z,1.30
2023-03-29T11:26:14.034Z,1.30
2023-03-29T11:31:27.739Z,1.33
2023-03-29T11:36:38.913Z,1.10
2023-03-29T11:41:47.381Z,1.20
2023-03-29T11:46:58.542Z,1.07
2023-03-29T11:52:11.859Z,1.03
2023-03-29T11:57:23.274Z,1.00
2023-03-29T12:02:32.882Z,1.17
2023-03-29T12:07:43.265Z,1.10
2023-03-29T12:12:52.537Z,1.07
2023-03-29T12:18:03.377Z,1.20
2023-03-29T12:23:09.247Z,1.20
2023-03-29T12:28:27.731Z,1.10
2023-03-29T12:34:01.402Z,1.00
2023-03-29T12:39:41.498Z,1.03
2023-03-29T12:45:03.371Z,0.87
2023-03-29T12:50:24.077Z,0.90
2023-03-29T12:55:35.533Z,0.90
2023-03-29T13:00:46.144Z,0.87
2023-03-29T13:06:00.868Z,0.90
2023-03-29T13:11:07.430Z,0.70
2023-03-29T13:16:16.607Z,0.50
2023-03-29T13:21:25.989Z,0.63
2023-03-29T13:26:53.400Z,0.50
2023-03-29T13:32:03.210Z,0.50
2023-03-29T13:37:21.099Z,0.57
2023-03-29T13:42:39.989Z,0.87
2023-03-29T13:47:54.900Z,1.37
2023-03-29T13:53:14.983Z,4.80
2023-03-29T13:58:33.686Z,2.47
2023-03-29T14:03:44.891Z,0.87
2023-03-29T14:08:50.477Z,0.60
2023-03-29T14:13:57.018Z,0.50
2023-03-29T14:19:01.052Z,0.77
2023-03-29T14:24:05.741Z,0.73
2023-03-29T14:29:12.817Z,0.60
2023-03-29T14:34:18.383Z,0.50
2023-03-29T14:39:23.572Z,0.80
2023-03-29T14:44:30.928Z,0.90
2023-03-29T14:49:34.770Z,0.70
2023-03-29T14:54:38.595Z,0.80
2023-03-29T14:59:44.612Z,0.70
2023-03-29T15:04:56.982Z,2.53
2023-03-29T15:10:02.245Z,4.47
2023-03-29T15:15:12.003Z,1.80
2023-03-29T15:20:21.269Z,0.90
2023-03-29T15:25:29.442Z,0.90
2023-03-29T15:30:37.446Z,0.87
2023-03-29T15:35:41.815Z,1.00
2023-03-29T15:40:45.361Z,0.90
2023-03-29T15:45:50.005Z,1.07
2023-03-29T15:50:53.513Z,1.20
2023-03-29T15:55:59.722Z,1.20
2023-03-29T16:01:13.097Z,1.10
2023-03-29T16:06:18.008Z,1.00
2023-03-29T16:11:21.248Z,1.10
2023-03-29T16:16:27.046Z,1.50
2023-03-29T16:21:30.573Z,1.80
2023-03-29T16:26:33.874Z,1.50
2023-03-29T16:31:38.875Z,1.27
2023-03-29T16:36:43.798Z,1.07
2023-03-29T16:41:48.841Z,0.87
2023-03-29T16:46:57.482Z,0.80
2023-03-29T16:52:00.942Z,0.83
2023-03-29T16:57:04.183Z,0.93
2023-03-29T17:02:10.400Z,1.10
2023-03-29T17:07:13.627Z,0.80
2023-03-29T17:12:17.484Z,1.43
2023-03-29T17:17:22.110Z,0.80
2023-03-29T17:22:26.031Z,0.70
2023-03-29T17:27:29.295Z,0.60
2023-03-29T17:32:33.907Z,0.50
2023-03-29T17:37:38.174Z,0.47
2023-03-29T17:42:41.358Z,0.73
2023-03-29T17:47:46.383Z,0.60
2023-03-29T17:52:49.682Z,0.60
2023-03-29T17:57:52.827Z,0.90
2023-03-29T18:02:57.526Z,0.70
2023-03-29T18:08:01.349Z,0.90
2023-03-29T18:13:04.629Z,0.60
2023-03-29T18:18:09.465Z,0.57
2023-03-29T18:23:13.031Z,0.50
2023-03-29T18:28:16.342Z,0.70
2023-03-29T18:33:21.139Z,0.67
2023-03-29T18:38:24.334Z,0.57
2023-03-29T18:43:27.589Z,0.70
2023-03-29T18:48:33.620Z,0.87
2023-03-29T18:53:37.462Z,0.90
2023-03-29T18:58:40.912Z,0.80
2023-03-29T19:03:45.706Z,0.80
2023-03-29T19:08:49.065Z,1.30
2023-03-29T19:13:52.284Z,0.80
2023-03-29T19:18:56.862Z,1.00
2023-03-29T19:24:00.967Z,0.70
2023-03-29T19:29:05.429Z,0.70
2023-03-29T19:34:11.065Z,0.80
2023-03-29T19:39:14.534Z,0.60
2023-03-29T19:44:17.674Z,0.80
2023-03-29T19:49:22.220Z,0.50
2023-03-29T19:54:26.257Z,0.67
2023-03-29T19:59:31.053Z,0.70
2023-03-29T20:04:35.656Z,1.00
2023-03-29T20:09:38.953Z,0.80
2023-03-29T20:14:43.173Z,1.00
2023-03-29T20:19:47.825Z,1.23
2023-03-29T20:24:51.003Z,1.73
2023-03-29T20:29:54.555Z,1.20
2023-03-29T20:34:59.143Z,1.20
2023-03-29T20:40:04.040Z,1.53
2023-03-29T20:45:08.811Z,1.20
2023-03-29T20:50:13.748Z,1.00
2023-03-29T20:55:22.353Z,1.00
2023-03-29T21:00:26.304Z,0.77
2023-03-29T21:05:33.141Z,0.70
2023-03-29T21:10:37.196Z,0.97
2023-03-29T21:15:41.844Z,1.20
2023-03-29T21:20:46.913Z,0.90
2023-03-29T21:25:50.207Z,0.80
2023-03-29T21:30:53.614Z,0.70
2023-03-29T21:35:58.322Z,0.70
2023-03-29T21:41:02.445Z,0.97
2023-03-29T21:46:06.423Z,0.90
2023-03-29T21:51:11.257Z,0.70
2023-03-29T21:56:14.513Z,0.60
2023-03-29T22:01:17.809Z,0.90
2023-03-29T22:06:22.925Z,0.90
2023-03-29T22:11:28.521Z,0.90
2023-03-29T22:16:32.328Z,0.50
2023-03-29T22:21:37.539Z,0.60
2023-03-29T22:26:41.079Z,0.60
2023-03-29T22:31:44.711Z,0.70
2023-03-29T22:36:49.530Z,0.50
2023-03-29T22:41:52.770Z,0.40
2023-03-29T22:46:56.120Z,0.47
2023-03-29T22:52:01.600Z,0.60
2023-03-29T22:57:05.183Z,0.40
2023-03-29T23:02:08.710Z,0.40
2023-03-29T23:07:13.313Z,0.50
2023-03-29T23:12:16.597Z,0.50
2023-03-29T23:17:20.485Z,0.40
2023-03-29T23:22:25.096Z,0.57
2023-03-29T23:27:28.340Z,0.47
2023-03-29T23:32:31.654Z,0.30
2023-03-29T23:37:36.355Z,0.40
2023-03-29T23:42:40.127Z,0.27
2023-03-29T23:47:43.973Z,0.40
2023-03-29T23:52:49.373Z,0.37
2023-03-29T23:57:52.561Z,0.40
